Time;durP1;ratioP1;P1;durP2;ratioP2;P2;SDS_P1;SDS_P2;PMS_P1;PMS_P2;Temp;Humidity;BMP_temperature;BMP_pressure;BME280_temperature;BME280_humidity;BME280_pressure;Samples;Min_cycle;Max_cycle;Signal;HPM_P1;HPM_P2
2022/05/03 00:00:57;;;;;;;5.97;3.80;;;;;;;;;;5014893;28;20061;-83
2022/05/03 00:03:24;;;;;;;5.75;3.55;;;;;;;;;;5014869;28;20105;-83
2022/05/03 00:06:08;;;;;;;9.48;4.43;;;;;;;;;;5014022;28;20036;-83
2022/05/03 00:08:43;;;;;;;7.22;4.38;;;;;;;;;;5014633;28;20101;-82
2022/05/03 00:11:15;;;;;;;7.78;3.90;;;;;;;;;;5013437;28;20033;-83
2022/05/03 00:13:50;;;;;;;8.63;3.83;;;;;;;;;;5046776;28;20017;-82
2022/05/03 00:16:15;;;;;;;10.35;4.68;;;;;;;;;;5014839;28;20302;-82
2022/05/03 00:18:44;;;;;;;5.93;4.22;;;;;;;;;;5013987;28;20021;-83
2022/05/03 00:21:10;;;;;;;8.73;4.43;;;;;;;;;;5013346;28;20022;-82
2022/05/03 00:23:35;;;;;;;11.02;4.80;;;;;;;;;;5013204;28;20068;-82
2022/05/03 00:26:01;;;;;;;12.60;4.32;;;;;;;;;;5014622;28;20441;-82
2022/05/03 00:28:26;;;;;;;6.65;4.28;;;;;;;;;;5014313;28;20018;-82
2022/05/03 00:30:52;;;;;;;10.40;4.15;;;;;;;;;;5013269;28;20072;-82
2022/05/03 00:33:18;;;;;;;7.28;4.45;;;;;;;;;;5014477;28;20035;-82
2022/05/03 00:35:43;;;;;;;6.80;4.25;;;;;;;;;;5046088;28;20049;-82
2022/05/03 00:38:09;;;;;;;8.38;4.78;;;;;;;;;;5020132;28;20113;-82
2022/05/03 00:40:35;;;;;;;10.57;4.70;;;;;;;;;;5034374;28;20037;-82
2022/05/03 00:43:03;;;;;;;8.77;5.07;;;;;;;;;;5049224;28;20022;-82
2022/05/03 00:45:31;;;;;;;9.38;4.90;;;;;;;;;;5033878;28;20013;-83
2022/05/03 00:47:57;;;;;;;9.93;4.43;;;;;;;;;;5065369;28;20473;-82
2022/05/03 00:50:34;;;;;;;8.93;5.00;;;;;;;;;;5033612;28;20067;-82
2022/05/03 00:53:18;;;;;;;14.63;5.78;;;;;;;;;;5033897;28;20093;-82
2022/05/03 00:55:53;;;;;;;7.88;4.60;;;;;;;;;;5065890;28;20548;-82
2022/05/03 00:58:24;;;;;;;8.77;5.00;;;;;;;;;;5065158;28;20430;-82
2022/05/03 01:00:59;;;;;;;7.35;4.72;;;;;;;;;;5033647;28;20028;-82
2022/05/03 01:03:43;;;;;;;6.80;4.38;;;;;;;;;;5033344;28;20076;-82
2022/05/03 01:06:18;;;;;;;8.27;4.72;;;;;;;;;;5065571;28;20564;-82
2022/05/03 01:08:55;;;;;;;11.68;4.82;;;;;;;;;;5064966;28;20457;-82
2022/05/03 01:11:38;;;;;;;6.75;4.80;;;;;;;;;;5065452;28;20025;-82
2022/05/03 01:14:12;;;;;;;10.50;4.95;;;;;;;;;;5065816;28;20056;-83
2022/05/03 01:17:02;;;;;;;9.10;4.57;;;;;;;;;;5048766;28;20021;-82
2022/05/03 01:19:33;;;;;;;8.52;4.35;;;;;;;;;;5065003;28;20017;-83
2022/05/03 01:22:15;;;;;;;10.60;5.35;;;;;;;;;;5064920;28;20389;-83
2022/05/03 01:24:40;;;;;;;8.90;5.13;;;;;;;;;;5065203;28;20045;-82
2022/05/03 01:27:05;;;;;;;9.93;5.22;;;;;;;;;;5065294;28;20026;-83
2022/05/03 01:29:32;;;;;;;8.05;4.90;;;;;;;;;;5064820;28;20025;-82
2022/05/03 01:32:02;;;;;;;7.88;4.90;;;;;;;;;;5064845;28;20055;-83
2022/05/03 01:34:28;;;;;;;7.05;4.70;;;;;;;;;;5064464;28;20112;-82
2022/05/03 01:36:59;;;;;;;10.45;5.20;;;;;;;;;;5048402;28;20118;-82
2022/05/03 01:39:37;;;;;;;7.30;4.70;;;;;;;;;;5064781;28;20018;-82
2022/05/03 01:42:05;;;;;;;12.82;5.45;;;;;;;;;;5033075;28;20251;-82
2022/05/03 01:44:48;;;;;;;11.25;4.85;;;;;;;;;;5032807;28;20025;-82
2022/05/03 01:47:21;;;;;;;9.10;5.38;;;;;;;;;;5032456;28;20013;-82
2022/05/03 01:52:33;;;;;;;9.23;5.05;;;;;;;;;;5033218;28;20424;-83
2022/05/03 01:55:07;;;;;;;8.18;4.88;;;;;;;;;;5064723;28;20017;-83
2022/05/03 01:57:55;;;;;;;10.68;5.03;;;;;;;;;;5064660;28;20546;-83
2022/05/03 02:00:22;;;;;;;13.95;4.68;;;;;;;;;;5030638;28;20032;-82
2022/05/03 02:02:57;;;;;;;11.75;4.50;;;;;;;;;;5031830;28;20101;-82
2022/05/03 02:05:40;;;;;;;7.60;5.00;;;;;;;;;;5032386;28;20491;-82
2022/05/03 02:08:09;;;;;;;10.07;5.10;;;;;;;;;;5064173;28;20038;-82
2022/05/03 02:10:36;;;;;;;8.20;4.50;;;;;;;;;;5064553;28;20029;-82
2022/05/03 02:13:06;;;;;;;9.95;4.78;;;;;;;;;;5064597;28;20044;-82
2022/05/03 02:15:44;;;;;;;8.55;4.57;;;;;;;;;;5032387;28;20029;-82
2022/05/03 02:18:15;;;;;;;6.70;4.47;;;;;;;;;;5063670;28;20083;-82
2022/05/03 02:20:40;;;;;;;10.13;5.30;;;;;;;;;;5032094;28;20104;-82
2022/05/03 02:23:10;;;;;;;14.05;5.30;;;;;;;;;;5032321;28;20033;-83
2022/05/03 02:25:36;;;;;;;9.50;4.63;;;;;;;;;;5032385;28;20041;-82
2022/05/03 02:28:10;;;;;;;8.90;4.75;;;;;;;;;;5063895;28;20025;-83
2022/05/03 02:30:35;;;;;;;9.55;4.65;;;;;;;;;;5032357;28;20385;-82
2022/05/03 02:33:03;;;;;;;7.88;5.03;;;;;;;;;;5064095;28;20024;-82
2022/05/03 02:35:33;;;;;;;7.45;4.85;;;;;;;;;;5047684;28;20497;-82
2022/05/03 02:38:02;;;;;;;8.20;4.83;;;;;;;;;;5031329;28;20033;-82
2022/05/03 02:40:30;;;;;;;7.90;4.83;;;;;;;;;;5063985;28;20025;-81
2022/05/03 02:42:56;;;;;;;9.65;5.20;;;;;;;;;;5064137;28;20473;-81
2022/05/03 02:45:22;;;;;;;8.68;4.97;;;;;;;;;;5064016;28;20029;-81
2022/05/03 02:47:50;;;;;;;8.18;4.53;;;;;;;;;;5063527;28;20029;-81
2022/05/03 02:50:15;;;;;;;8.18;4.80;;;;;;;;;;5063880;28;20116;-81
2022/05/03 02:52:47;;;;;;;7.43;4.40;;;;;;;;;;5063852;28;20428;-81
2022/05/03 02:55:20;;;;;;;11.13;5.10;;;;;;;;;;5063850;28;20023;-81
2022/05/03 02:57:49;;;;;;;9.27;4.68;;;;;;;;;;5063108;28;20384;-81
2022/05/03 03:03:16;;;;;;;11.70;4.80;;;;;;;;;;5032118;28;20507;-81
2022/05/03 03:05:42;;;;;;;12.27;4.87;;;;;;;;;;5063613;28;20388;-81
2022/05/03 03:08:09;;;;;;;8.47;4.87;;;;;;;;;;5063178;28;20050;-81
2022/05/03 03:10:50;;;;;;;10.73;4.73;;;;;;;;;;5031832;28;20071;-82
2022/05/03 03:13:15;;;;;;;8.10;5.00;;;;;;;;;;5064074;28;20024;-81
2022/05/03 03:15:40;;;;;;;8.87;5.37;;;;;;;;;;5067623;28;20460;-81
2022/05/03 03:18:16;;;;;;;8.73;4.47;;;;;;;;;;5035045;28;20017;-81
2022/05/03 03:20:45;;;;;;;8.23;4.57;;;;;;;;;;5067218;28;20021;-81
2022/05/03 03:23:15;;;;;;;8.20;4.30;;;;;;;;;;5067550;28;20033;-81
2022/05/03 03:25:42;;;;;;;7.53;4.53;;;;;;;;;;5067946;28;20017;-81
2022/05/03 03:28:08;;;;;;;9.57;5.23;;;;;;;;;;5034894;28;20017;-81
2022/05/03 03:30:34;;;;;;;7.30;4.50;;;;;;;;;;5035834;28;20017;-82
2022/05/03 03:33:00;;;;;;;10.48;5.22;;;;;;;;;;5067327;28;20022;-81
2022/05/03 03:35:25;;;;;;;8.80;4.97;;;;;;;;;;5067558;28;20080;-81
2022/05/03 03:37:51;;;;;;;8.57;5.03;;;;;;;;;;5066990;28;20022;-81
2022/05/03 03:40:17;;;;;;;11.27;4.85;;;;;;;;;;5067668;28;20048;-81
2022/05/03 03:42:43;;;;;;;17.50;5.07;;;;;;;;;;5067221;28;20032;-81
2022/05/03 03:45:10;;;;;;;8.53;5.07;;;;;;;;;;5067404;28;20074;-81
2022/05/03 03:47:35;;;;;;;8.00;5.13;;;;;;;;;;5067097;28;20028;-81
2022/05/03 03:50:01;;;;;;;7.67;4.80;;;;;;;;;;5034956;28;20021;-81
2022/05/03 03:52:26;;;;;;;10.57;4.87;;;;;;;;;;5066943;28;20025;-81
2022/05/03 03:54:52;;;;;;;9.20;5.10;;;;;;;;;;5066989;28;20428;-81
2022/05/03 03:57:20;;;;;;;9.20;5.30;;;;;;;;;;5067027;28;20051;-81
2022/05/03 03:59:45;;;;;;;11.38;4.65;;;;;;;;;;5034511;28;20105;-81
2022/05/03 04:02:10;;;;;;;7.53;5.10;;;;;;;;;;5050019;28;20521;-81
2022/05/03 04:04:37;;;;;;;9.13;5.20;;;;;;;;;;5066779;28;20021;-81
2022/05/03 04:07:02;;;;;;;8.77;5.40;;;;;;;;;;5066197;28;20042;-81
2022/05/03 04:09:28;;;;;;;9.93;5.10;;;;;;;;;;5066289;28;20018;-81
2022/05/03 04:11:53;;;;;;;12.60;4.95;;;;;;;;;;5066265;28;20060;-81
2022/05/03 04:14:19;;;;;;;8.20;4.60;;;;;;;;;;5066216;28;20436;-81
2022/05/03 04:16:45;;;;;;;9.77;4.70;;;;;;;;;;5066527;28;20025;-81
2022/05/03 04:19:11;;;;;;;9.80;5.20;;;;;;;;;;5066251;28;20026;-81
2022/05/03 04:21:36;;;;;;;10.87;5.37;;;;;;;;;;5066520;28;20040;-81
2022/05/03 04:24:02;;;;;;;8.47;4.70;;;;;;;;;;5049262;28;20058;-81
2022/05/03 04:26:27;;;;;;;9.80;5.40;;;;;;;;;;5066478;28;20464;-81
2022/05/03 04:28:56;;;;;;;6.73;4.33;;;;;;;;;;5065947;28;20028;-81
2022/05/03 04:31:25;;;;;;;11.43;4.63;;;;;;;;;;5034555;28;20021;-81
2022/05/03 04:33:51;;;;;;;10.53;5.53;;;;;;;;;;5065848;28;20481;-81
2022/05/03 04:36:16;;;;;;;12.17;5.37;;;;;;;;;;5066023;28;20171;-81
2022/05/03 04:38:41;;;;;;;12.07;5.50;;;;;;;;;;5066018;28;20036;-81
2022/05/03 04:41:06;;;;;;;9.10;5.23;;;;;;;;;;5066304;28;20025;-81
2022/05/03 04:43:31;;;;;;;9.27;5.03;;;;;;;;;;5066134;28;20097;-81
2022/05/03 04:45:58;;;;;;;10.63;5.70;;;;;;;;;;5065615;28;20077;-81
2022/05/03 04:48:24;;;;;;;12.43;5.77;;;;;;;;;;5033966;28;20020;-81
2022/05/03 04:50:49;;;;;;;9.70;4.63;;;;;;;;;;5065860;28;20108;-81
2022/05/03 04:53:16;;;;;;;10.77;4.90;;;;;;;;;;5048784;28;20387;-81
2022/05/03 04:55:42;;;;;;;10.93;5.27;;;;;;;;;;5065736;28;20035;-81
2022/05/03 04:58:07;;;;;;;9.63;5.47;;;;;;;;;;5065406;28;20025;-81
2022/05/03 05:00:33;;;;;;;13.83;5.10;;;;;;;;;;5065973;28;20009;-82
2022/05/03 05:02:58;;;;;;;9.57;5.40;;;;;;;;;;5034253;28;20021;-81
2022/05/03 05:05:23;;;;;;;12.80;6.17;;;;;;;;;;5049059;28;20014;-81
2022/05/03 05:07:48;;;;;;;10.50;5.60;;;;;;;;;;5064809;28;20030;-81
2022/05/03 05:10:28;;;;;;;10.70;5.50;;;;;;;;;;5033149;28;20040;-81
2022/05/03 05:12:54;;;;;;;9.93;5.27;;;;;;;;;;5065605;28;20035;-81
2022/05/03 05:15:21;;;;;;;9.50;5.77;;;;;;;;;;5033545;28;20092;-81
2022/05/03 05:17:46;;;;;;;14.40;6.00;;;;;;;;;;5032896;28;20463;-81
2022/05/03 05:20:11;;;;;;;11.50;6.13;;;;;;;;;;5065223;28;20112;-81
2022/05/03 05:22:37;;;;;;;9.77;5.70;;;;;;;;;;5065415;28;20029;-81
2022/05/03 05:25:02;;;;;;;12.23;6.20;;;;;;;;;;5065585;28;20030;-81
2022/05/03 05:27:27;;;;;;;11.93;5.40;;;;;;;;;;5032866;28;20092;-81
2022/05/03 05:29:53;;;;;;;10.07;6.30;;;;;;;;;;5065120;28;20021;-81
2022/05/03 05:32:18;;;;;;;12.20;6.10;;;;;;;;;;5065396;28;20028;-81
2022/05/03 05:34:44;;;;;;;14.03;6.60;;;;;;;;;;5065358;28;20025;-82
2022/05/03 05:37:09;;;;;;;13.63;6.33;;;;;;;;;;5064153;28;20115;-82
2022/05/03 05:39:34;;;;;;;9.77;6.13;;;;;;;;;;5064650;28;20372;-82
2022/05/03 05:42:01;;;;;;;15.43;6.60;;;;;;;;;;5064972;28;20049;-82
2022/05/03 05:44:26;;;;;;;14.73;6.07;;;;;;;;;;5066600;28;20531;-82
2022/05/03 05:46:54;;;;;;;14.80;6.27;;;;;;;;;;5051102;28;20051;-82
2022/05/03 05:49:20;;;;;;;10.40;6.25;;;;;;;;;;5065794;28;20100;-82
2022/05/03 05:51:45;;;;;;;11.57;6.20;;;;;;;;;;5051236;28;20104;-82
2022/05/03 05:54:13;;;;;;;15.10;6.40;;;;;;;;;;5052401;28;20410;-82
2022/05/03 05:56:41;;;;;;;16.80;7.00;;;;;;;;;;5052587;28;20028;-82
2022/05/03 05:59:06;;;;;;;15.40;6.50;;;;;;;;;;5052133;28;20025;-82
2022/05/03 06:01:41;;;;;;;13.70;6.63;;;;;;;;;;5051492;28;20450;-82
2022/05/03 06:04:06;;;;;;;8.85;5.97;;;;;;;;;;5044613;28;20443;-82
2022/05/03 06:06:32;;;;;;;10.15;5.88;;;;;;;;;;5052411;28;20025;-82
2022/05/03 06:08:58;;;;;;;12.02;5.90;;;;;;;;;;5045088;28;20096;-82
2022/05/03 06:11:23;;;;;;;11.95;6.53;;;;;;;;;;5032013;28;20060;-82
2022/05/03 06:13:48;;;;;;;11.68;6.10;;;;;;;;;;5049824;28;20108;-81
2022/05/03 06:16:15;;;;;;;10.80;6.32;;;;;;;;;;5048806;28;20057;-81
2022/05/03 06:18:40;;;;;;;8.38;5.25;;;;;;;;;;5034850;28;20473;-82
2022/05/03 06:21:07;;;;;;;13.23;5.43;;;;;;;;;;5032196;28;20029;-82
2022/05/03 06:23:32;;;;;;;8.27;5.40;;;;;;;;;;5032181;28;20026;-82
2022/05/03 06:25:58;;;;;;;14.73;5.60;;;;;;;;;;5031898;28;20037;-82
2022/05/03 06:28:23;;;;;;;10.63;5.63;;;;;;;;;;5033495;28;20021;-82
2022/05/03 06:30:48;;;;;;;9.35;5.30;;;;;;;;;;5032213;28;20083;-82
2022/05/03 06:33:14;;;;;;;15.63;5.53;;;;;;;;;;5034965;28;20025;-82
2022/05/03 06:35:39;;;;;;;10.90;5.38;;;;;;;;;;5032987;28;20032;-82
2022/05/03 06:38:04;;;;;;;10.68;5.22;;;;;;;;;;5032206;28;20028;-82
2022/05/03 06:40:29;;;;;;;12.35;6.25;;;;;;;;;;5031488;28;20028;-82
2022/05/03 06:42:55;;;;;;;11.65;4.38;;;;;;;;;;5031781;28;20447;-82
2022/05/03 06:45:20;;;;;;;11.60;4.70;;;;;;;;;;5063662;28;20005;-82
2022/05/03 06:47:48;;;;;;;8.25;5.05;;;;;;;;;;5031386;28;20025;-82
2022/05/03 06:50:13;;;;;;;9.98;4.75;;;;;;;;;;5063644;28;20040;-82
2022/05/03 06:52:41;;;;;;;10.55;5.18;;;;;;;;;;5062936;28;20014;-82
2022/05/03 06:55:07;;;;;;;11.93;5.43;;;;;;;;;;5063492;28;20021;-82
2022/05/03 06:57:32;;;;;;;11.80;5.68;;;;;;;;;;5063817;28;20036;-82
2022/05/03 07:00:00;;;;;;;9.13;4.97;;;;;;;;;;5063628;28;20025;-82
2022/05/03 07:02:27;;;;;;;6.75;4.20;;;;;;;;;;5063310;28;20179;-82
2022/05/03 07:04:53;;;;;;;9.95;4.97;;;;;;;;;;5063556;28;20473;-82
2022/05/03 07:07:18;;;;;;;8.57;5.20;;;;;;;;;;5063551;28;20022;-82
2022/05/03 07:09:43;;;;;;;19.20;5.15;;;;;;;;;;5063636;28;20017;-82
2022/05/03 07:12:09;;;;;;;13.20;5.05;;;;;;;;;;5063148;28;20033;-82
2022/05/03 07:14:34;;;;;;;8.73;4.82;;;;;;;;;;5063740;28;20009;-82
2022/05/03 07:16:59;;;;;;;11.00;4.45;;;;;;;;;;5031392;28;20025;-82
2022/05/03 07:24:52;;;;;;;9.30;4.32;;;;;;;;;;5031594;28;20029;-82
2022/05/03 07:27:17;;;;;;;9.23;4.45;;;;;;;;;;5031615;28;20017;-82
2022/05/03 07:29:44;;;;;;;12.40;4.00;;;;;;;;;;5031573;28;20018;-82
2022/05/03 07:32:09;;;;;;;6.90;3.80;;;;;;;;;;5031173;28;20017;-82
2022/05/03 07:34:34;;;;;;;6.32;3.00;;;;;;;;;;5063530;28;20104;-82
2022/05/03 07:37:00;;;;;;;7.15;3.08;;;;;;;;;;5063490;28;20018;-82
2022/05/03 07:39:25;;;;;;;8.88;3.70;;;;;;;;;;5063487;28;20387;-82
2022/05/03 07:41:52;;;;;;;6.22;3.05;;;;;;;;;;5063219;28;20085;-82
2022/05/03 07:44:17;;;;;;;5.00;2.83;;;;;;;;;;5063567;28;20099;-82
2022/05/03 07:46:42;;;;;;;6.05;3.50;;;;;;;;;;5063438;28;20026;-82
2022/05/03 07:49:09;;;;;;;9.35;3.67;;;;;;;;;;5062834;28;20021;-82
2022/05/03 07:51:34;;;;;;;7.53;2.92;;;;;;;;;;5062649;28;20026;-82
2022/05/03 07:53:59;;;;;;;6.13;2.97;;;;;;;;;;5030919;28;20446;-82
2022/05/03 07:56:24;;;;;;;7.28;4.13;;;;;;;;;;5062871;28;20107;-82
2022/05/03 07:58:50;;;;;;;7.57;4.00;;;;;;;;;;5063562;28;20025;-82
2022/05/03 08:01:15;;;;;;;8.82;3.47;;;;;;;;;;5066513;28;20423;-82
2022/05/03 08:03:40;;;;;;;8.07;3.63;;;;;;;;;;5066846;28;20025;-82
2022/05/03 08:06:05;;;;;;;6.85;3.90;;;;;;;;;;5066914;28;20093;-82
2022/05/03 08:08:31;;;;;;;7.88;3.63;;;;;;;;;;5066699;28;20457;-83
2022/05/03 08:10:56;;;;;;;10.07;3.38;;;;;;;;;;5065767;28;20029;-82
2022/05/03 08:13:21;;;;;;;7.35;3.25;;;;;;;;;;5066530;28;20028;-82
2022/05/03 08:15:47;;;;;;;15.55;3.60;;;;;;;;;;5034956;28;20439;-83
2022/05/03 08:18:12;;;;;;;5.18;2.75;;;;;;;;;;5066586;28;20032;-82
2022/05/03 08:20:38;;;;;;;5.03;2.97;;;;;;;;;;5066286;28;20025;-83
2022/05/03 08:23:03;;;;;;;8.32;2.72;;;;;;;;;;5034536;28;20443;-83
2022/05/03 08:25:29;;;;;;;6.63;3.45;;;;;;;;;;5050090;28;20005;-83
2022/05/03 08:27:55;;;;;;;7.50;2.90;;;;;;;;;;5049665;28;20493;-83
2022/05/03 08:30:20;;;;;;;7.00;3.10;;;;;;;;;;5049190;28;20427;-82
2022/05/03 08:32:46;;;;;;;5.47;2.92;;;;;;;;;;5049733;28;20024;-82
2022/05/03 08:35:11;;;;;;;8.52;4.13;;;;;;;;;;5034158;28;20025;-82
2022/05/03 08:43:07;;;;;;;6.55;3.55;;;;;;;;;;5034618;28;20048;-82
2022/05/03 08:45:32;;;;;;;9.73;4.22;;;;;;;;;;5066199;28;20484;-83
2022/05/03 08:47:59;;;;;;;9.82;3.65;;;;;;;;;;5065789;28;20087;-83
2022/05/03 08:50:24;;;;;;;9.35;4.32;;;;;;;;;;5065682;28;20022;-82
2022/05/03 08:52:54;;;;;;;9.43;3.85;;;;;;;;;;5065592;28;20354;-82
2022/05/03 08:55:19;;;;;;;6.47;3.90;;;;;;;;;;5065879;28;20100;-82
2022/05/03 08:57:45;;;;;;;6.32;3.88;;;;;;;;;;5065996;28;20035;-83
2022/05/03 09:00:11;;;;;;;5.90;3.78;;;;;;;;;;5065408;28;20034;-82
2022/05/03 09:02:49;;;;;;;6.47;3.47;;;;;;;;;;5065689;28;20074;-82
2022/05/03 09:05:14;;;;;;;5.90;3.25;;;;;;;;;;5065741;28;20099;-82
2022/05/03 09:07:53;;;;;;;9.38;3.28;;;;;;;;;;5065599;28;20021;-82
2022/05/03 09:10:28;;;;;;;6.60;3.20;;;;;;;;;;5032992;28;20056;-82
2022/05/03 09:12:55;;;;;;;6.97;3.38;;;;;;;;;;5065300;28;20396;-83
2022/05/03 09:15:30;;;;;;;5.82;3.22;;;;;;;;;;5065351;28;20396;-82
2022/05/03 09:17:55;;;;;;;7.15;3.60;;;;;;;;;;5065422;28;20033;-82
2022/05/03 09:26:08;;;;;;;5.63;2.92;;;;;;;;;;5033458;28;20076;-83
2022/05/03 09:28:33;;;;;;;4.82;2.00;;;;;;;;;;5065169;28;20067;-83
2022/05/03 09:30:59;;;;;;;6.32;2.80;;;;;;;;;;5064697;28;20021;-82
2022/05/03 09:33:24;;;;;;;4.95;3.35;;;;;;;;;;5065038;28;20036;-82
2022/05/03 09:35:50;;;;;;;9.10;2.58;;;;;;;;;;5048366;28;20041;-82
2022/05/03 09:38:15;;;;;;;4.85;2.42;;;;;;;;;;5064856;28;20108;-82
2022/05/03 09:40:42;;;;;;;10.25;3.22;;;;;;;;;;5064813;28;20029;-82
2022/05/03 09:43:08;;;;;;;9.55;2.95;;;;;;;;;;5065028;28;20013;-82
2022/05/03 09:45:34;;;;;;;7.68;2.67;;;;;;;;;;5065018;28;20021;-82
2022/05/03 09:48:00;;;;;;;6.32;3.25;;;;;;;;;;5064710;28;20483;-83
2022/05/03 09:50:29;;;;;;;5.75;3.45;;;;;;;;;;5064278;28;20021;-82
2022/05/03 09:52:55;;;;;;;6.80;3.67;;;;;;;;;;5064542;28;20108;-82
2022/05/03 09:55:29;;;;;;;9.65;3.53;;;;;;;;;;5064506;28;20018;-82
2022/05/03 09:57:56;;;;;;;6.90;3.05;;;;;;;;;;5064633;28;20022;-82
2022/05/03 10:00:21;;;;;;;8.27;3.85;;;;;;;;;;5031886;28;20025;-82
2022/05/03 10:02:47;;;;;;;5.90;3.60;;;;;;;;;;5064493;28;20078;-83
2022/05/03 10:05:12;;;;;;;2.08;0.93;;;;;;;;;;5032516;28;20041;-83
2022/05/03 10:07:38;;;;;;;6.72;3.25;;;;;;;;;;5064267;28;20030;-82
2022/05/03 10:10:06;;;;;;;6.18;3.00;;;;;;;;;;5064043;28;20108;-82
2022/05/03 10:12:34;;;;;;;6.88;3.22;;;;;;;;;;5032267;28;20053;-83
2022/05/03 10:15:00;;;;;;;4.68;2.70;;;;;;;;;;5032468;28;20412;-81
2022/05/03 10:23:00;;;;;;;5.28;3.33;;;;;;;;;;5031911;28;20082;-82
2022/05/03 10:25:44;;;;;;;5.63;3.25;;;;;;;;;;5047572;28;20029;-82
2022/05/03 10:28:10;;;;;;;5.68;3.20;;;;;;;;;;5064445;28;20037;-82
2022/05/03 10:30:38;;;;;;;5.03;2.58;;;;;;;;;;5063857;28;20030;-82
2022/05/03 10:33:35;;;;;;;6.45;3.00;;;;;;;;;;5064385;28;20462;-82
2022/05/03 10:36:01;;;;;;;7.47;3.78;;;;;;;;;;5064438;28;20044;-81
2022/05/03 10:38:40;;;;;;;6.18;3.20;;;;;;;;;;5063962;28;20030;-82
2022/05/03 10:41:05;;;;;;;10.13;2.90;;;;;;;;;;5063860;28;20022;-82
2022/05/03 10:43:33;;;;;;;6.40;3.20;;;;;;;;;;5064296;28;20488;-82
2022/05/03 10:46:08;;;;;;;4.25;2.13;;;;;;;;;;5063873;28;20113;-82
2022/05/03 10:48:34;;;;;;;6.43;2.72;;;;;;;;;;5063877;28;20084;-82
2022/05/03 10:51:06;;;;;;;5.20;3.00;;;;;;;;;;5031717;28;20541;-82
2022/05/03 10:53:32;;;;;;;4.78;2.83;;;;;;;;;;5070225;28;20013;-82
2022/05/03 10:56:02;;;;;;;4.45;2.50;;;;;;;;;;5050870;28;20029;-82
2022/05/03 10:58:31;;;;;;;5.35;2.35;;;;;;;;;;5032971;28;20053;-82
2022/05/03 11:01:23;;;;;;;7.60;3.38;;;;;;;;;;5046981;28;20025;-82
2022/05/03 11:03:49;;;;;;;5.23;3.00;;;;;;;;;;5058914;28;20389;-82
2022/05/03 11:06:24;;;;;;;4.35;2.53;;;;;;;;;;5031797;28;20289;-82
2022/05/03 11:09:08;;;;;;;7.93;2.38;;;;;;;;;;5041902;28;20036;-82
2022/05/03 11:11:43;;;;;;;6.68;3.45;;;;;;;;;;5011113;28;20064;-81
2022/05/03 11:14:21;;;;;;;7.32;2.92;;;;;;;;;;5061288;28;20013;-82
2022/05/03 11:17:10;;;;;;;6.45;2.40;;;;;;;;;;5042951;28;20071;-82
2022/05/03 11:19:39;;;;;;;4.75;2.70;;;;;;;;;;5031429;28;20379;-82
2022/05/03 11:22:11;;;;;;;4.85;2.83;;;;;;;;;;5032193;28;20552;-81
2022/05/03 11:24:40;;;;;;;8.00;4.53;;;;;;;;;;5031653;28;20061;-81
2022/05/03 11:27:06;;;;;;;5.18;2.95;;;;;;;;;;5034683;28;20025;-81
2022/05/03 11:29:32;;;;;;;6.88;2.40;;;;;;;;;;5060621;28;20028;-81
2022/05/03 11:32:01;;;;;;;4.95;2.30;;;;;;;;;;5046353;28;20021;-81
2022/05/03 11:34:26;;;;;;;7.00;3.38;;;;;;;;;;5067419;28;20480;-81
2022/05/03 11:36:52;;;;;;;4.10;2.30;;;;;;;;;;5036182;28;20022;-81
2022/05/03 11:39:18;;;;;;;3.80;2.35;;;;;;;;;;5037746;28;20422;-82
2022/05/03 11:41:43;;;;;;;6.30;2.50;;;;;;;;;;5039367;28;20072;-81
2022/05/03 11:44:09;;;;;;;5.20;2.33;;;;;;;;;;5035441;28;20111;-81
2022/05/03 11:46:34;;;;;;;3.13;2.25;;;;;;;;;;5034136;28;20022;-81
2022/05/03 11:49:01;;;;;;;4.47;2.05;;;;;;;;;;5034120;28;20030;-81
2022/05/03 11:57:11;;;;;;;3.83;2.05;;;;;;;;;;5035284;28;20543;-81
2022/05/03 11:59:40;;;;;;;5.38;2.38;;;;;;;;;;5034051;28;20040;-81
2022/05/03 12:02:13;;;;;;;4.95;1.83;;;;;;;;;;5050193;28;20053;-81
2022/05/03 12:04:38;;;;;;;6.60;2.13;;;;;;;;;;5033092;28;20116;-81
2022/05/03 12:07:04;;;;;;;3.83;1.95;;;;;;;;;;5050115;28;20108;-81
2022/05/03 12:09:34;;;;;;;3.97;2.50;;;;;;;;;;5034761;28;20018;-81
2022/05/03 12:14:44;;;;;;;4.55;2.55;;;;;;;;;;5034008;28;20117;-81
2022/05/03 12:17:09;;;;;;;10.40;3.13;;;;;;;;;;5034496;28;20052;-82
2022/05/03 12:19:35;;;;;;;6.97;3.20;;;;;;;;;;5034467;28;20045;-81
2022/05/03 12:22:12;;;;;;;6.18;2.47;;;;;;;;;;5034184;28;20094;-82
2022/05/03 12:24:38;;;;;;;4.53;2.65;;;;;;;;;;5032773;28;20029;-82
2022/05/03 12:27:13;;;;;;;4.38;2.90;;;;;;;;;;5034496;28;20014;-81
2022/05/03 12:29:44;;;;;;;6.28;2.83;;;;;;;;;;5032248;28;20355;-81
2022/05/03 12:32:18;;;;;;;8.40;2.85;;;;;;;;;;5034098;28;20037;-81
2022/05/03 12:35:01;;;;;;;4.07;2.30;;;;;;;;;;5032046;28;20022;-81
2022/05/03 12:37:26;;;;;;;;;;;;;;;;;;5032972;28;20021;-81
2022/05/03 12:39:51;;;;;;;7.13;2.65;;;;;;;;;;5049363;28;19955;-81
2022/05/03 12:42:16;;;;;;;10.20;3.17;;;;;;;;;;5034352;28;20649;-82
2022/05/03 12:44:47;;;;;;;9.20;2.97;;;;;;;;;;5032634;28;20030;-81
2022/05/03 12:47:13;;;;;;;8.33;4.23;;;;;;;;;;5033597;28;20018;-81
2022/05/03 12:49:38;;;;;;;6.07;3.60;;;;;;;;;;5034132;28;20021;-81
2022/05/03 12:52:04;;;;;;;5.70;2.80;;;;;;;;;;5032877;28;20041;-82
2022/05/03 12:54:29;;;;;;;11.85;3.22;;;;;;;;;;5033507;28;20021;-82
2022/05/03 12:59:38;;;;;;;5.05;3.05;;;;;;;;;;5034011;28;20032;-81
2022/05/03 13:02:03;;;;;;;5.85;3.05;;;;;;;;;;5032408;28;20472;-82
2022/05/03 13:04:29;;;;;;;5.80;3.00;;;;;;;;;;5032057;28;20022;-81
2022/05/03 13:06:57;;;;;;;6.07;3.40;;;;;;;;;;5032217;28;20026;-82
2022/05/03 13:09:22;;;;;;;10.57;3.75;;;;;;;;;;5033779;28;20412;-82
2022/05/03 13:11:48;;;;;;;9.30;4.60;;;;;;;;;;5032287;28;20033;-82
2022/05/03 13:14:13;;;;;;;8.40;4.72;;;;;;;;;;5032912;28;20021;-81
2022/05/03 13:16:39;;;;;;;11.13;4.00;;;;;;;;;;5032200;28;20036;-82
2022/05/03 13:19:05;;;;;;;5.10;3.40;;;;;;;;;;5032447;28;20030;-82
2022/05/03 13:21:39;;;;;;;6.15;3.28;;;;;;;;;;5032327;28;20021;-81
2022/05/03 13:24:05;;;;;;;11.57;3.33;;;;;;;;;;5032005;28;20026;-81
2022/05/03 13:26:32;;;;;;;4.63;2.67;;;;;;;;;;5032234;28;20025;-81
2022/05/03 13:28:57;;;;;;;6.65;3.15;;;;;;;;;;5033217;28;20068;-82
2022/05/03 13:31:23;;;;;;;8.30;2.92;;;;;;;;;;5048654;28;20022;-81
2022/05/03 13:33:48;;;;;;;4.35;2.85;;;;;;;;;;5031796;28;20013;-81
2022/05/03 13:41:41;;;;;;;7.50;4.05;;;;;;;;;;5033350;28;20080;-81
2022/05/03 13:44:06;;;;;;;9.02;2.55;;;;;;;;;;5032930;28;20017;-81
2022/05/03 13:46:32;;;;;;;4.05;2.47;;;;;;;;;;5032823;28;20032;-82
2022/05/03 13:48:57;;;;;;;8.20;3.95;;;;;;;;;;5031696;28;20071;-81
2022/05/03 13:51:22;;;;;;;6.10;3.30;;;;;;;;;;5031870;28;20021;-81
2022/05/03 13:53:47;;;;;;;7.72;3.80;;;;;;;;;;5032389;28;20036;-81
2022/05/03 13:56:14;;;;;;;6.93;3.63;;;;;;;;;;5032889;28;20018;-81
2022/05/03 13:58:39;;;;;;;5.25;2.80;;;;;;;;;;5030730;28;20087;-81
2022/05/03 14:01:05;;;;;;;8.70;2.88;;;;;;;;;;5031648;28;20104;-81
2022/05/03 14:03:30;;;;;;;5.15;2.60;;;;;;;;;;5032593;28;20022;-82
2022/05/03 14:05:55;;;;;;;5.13;2.50;;;;;;;;;;5031532;28;20025;-81
2022/05/03 14:08:21;;;;;;;10.07;3.63;;;;;;;;;;5031174;28;20116;-82
2022/05/03 14:10:46;;;;;;;9.50;3.67;;;;;;;;;;5032572;28;20103;-81
2022/05/03 14:13:11;;;;;;;6.47;3.08;;;;;;;;;;5032150;28;20033;-82
2022/05/03 14:15:36;;;;;;;4.97;2.55;;;;;;;;;;5031396;28;20024;-81
2022/05/03 14:18:03;;;;;;;9.95;3.10;;;;;;;;;;5047624;28;20014;-82
2022/05/03 14:20:29;;;;;;;8.63;2.85;;;;;;;;;;5032209;28;20083;-81
2022/05/03 14:22:55;;;;;;;5.15;3.08;;;;;;;;;;5030508;28;20029;-82
2022/05/03 14:25:23;;;;;;;8.30;3.03;;;;;;;;;;5031059;28;20029;-82
2022/05/03 14:27:48;;;;;;;12.52;4.05;;;;;;;;;;5032199;28;20045;-82
2022/05/03 14:30:13;;;;;;;14.07;5.43;;;;;;;;;;5031014;28;20059;-82
2022/05/03 14:32:38;;;;;;;9.85;4.63;;;;;;;;;;5031758;28;20337;-81
2022/05/03 14:35:06;;;;;;;11.93;5.40;;;;;;;;;;5032192;28;20028;-82
2022/05/03 14:37:31;;;;;;;10.75;5.65;;;;;;;;;;5030808;28;20036;-82
2022/05/03 14:39:56;;;;;;;9.68;4.75;;;;;;;;;;5030528;28;20033;-82
2022/05/03 14:42:22;;;;;;;10.65;4.15;;;;;;;;;;5030551;28;20117;-82
2022/05/03 14:44:48;;;;;;;9.95;5.20;;;;;;;;;;5031783;28;20056;-82
2022/05/03 14:47:13;;;;;;;7.88;5.18;;;;;;;;;;5047243;28;20471;-82
2022/05/03 14:49:41;;;;;;;8.20;5.03;;;;;;;;;;5030935;28;20495;-82
2022/05/03 14:52:09;;;;;;;8.23;4.85;;;;;;;;;;5031821;28;20014;-82
2022/05/03 14:54:36;;;;;;;9.90;5.57;;;;;;;;;;5030707;28;20021;-82
2022/05/03 15:05:13;;;;;;;13.25;5.53;;;;;;;;;;5031950;28;20380;-82
2022/05/03 15:07:38;;;;;;;12.48;6.13;;;;;;;;;;5030449;28;20124;-82
2022/05/03 15:10:04;;;;;;;12.82;8.05;;;;;;;;;;5036720;28;20024;-82
2022/05/03 15:12:30;;;;;;;13.75;7.47;;;;;;;;;;5036807;28;20060;-81
2022/05/03 15:14:55;;;;;;;9.57;5.88;;;;;;;;;;5037183;28;20559;-82
2022/05/03 15:17:21;;;;;;;14.00;6.30;;;;;;;;;;5037022;28;20021;-82
2022/05/03 15:19:46;;;;;;;8.40;5.63;;;;;;;;;;5038275;28;20025;-82
2022/05/03 15:22:12;;;;;;;10.15;6.28;;;;;;;;;;5038094;28;20025;-82
2022/05/03 15:24:38;;;;;;;11.73;7.43;;;;;;;;;;5036698;28;20029;-81
2022/05/03 15:27:07;;;;;;;15.45;7.50;;;;;;;;;;5037145;28;20026;-82
2022/05/03 15:29:34;;;;;;;12.48;7.20;;;;;;;;;;5037915;28;20059;-82
2022/05/03 15:32:17;;;;;;;11.18;6.63;;;;;;;;;;5037537;28;20052;-82
2022/05/03 15:34:43;;;;;;;12.52;6.32;;;;;;;;;;5037671;28;20399;-82